createdAt,value
2022-11-02T00:01:19.852Z,73.11
2022-11-02T00:03:23.146Z,73.33
2022-11-02T00:05:25.802Z,73.33
2022-11-02T00:07:28.413Z,73.42
2022-11-02T00:09:30.982Z,73.38
2022-11-02T00:11:33.582Z,73.17
2022-11-02T00:13:36.146Z,72.80
2022-11-02T00:15:40.189Z,72.90
2022-11-02T00:17:47.802Z,72.95
2022-11-02T00:19:50.559Z,72.82
2022-11-02T00:21:53.139Z,73.04
2022-11-02T00:23:58.874Z,73.16
2022-11-02T00:26:02.988Z,72.53
2022-11-02T00:28:05.927Z,72.99
2022-11-02T00:30:10.473Z,72.48
2022-11-02T00:32:14.362Z,72.85
2022-11-02T00:34:17.128Z,72.48
2022-11-02T00:36:19.854Z,72.20
2022-11-02T00:38:22.431Z,72.24
2022-11-02T00:40:24.988Z,72.06
2022-11-02T00:42:27.594Z,72.38
2022-11-02T00:44:30.154Z,72.35
2022-11-02T00:46:34.643Z,72.14
2022-11-02T00:48:38.532Z,72.25
2022-11-02T00:50:41.179Z,71.58
2022-11-02T00:52:43.782Z,71.70
2022-11-02T00:54:46.827Z,71.86
2022-11-02T00:56:49.449Z,72.03
2022-11-02T00:58:52.172Z,71.93
2022-11-02T01:00:56.481Z,72.05
2022-11-02T01:03:00.854Z,71.43
2022-11-02T01:05:06.124Z,71.71
2022-11-02T01:07:08.823Z,71.73
2022-11-02T01:09:12.511Z,71.88
2022-11-02T01:11:17.531Z,71.87
2022-11-02T01:13:20.131Z,71.54
2022-11-02T01:15:22.793Z,71.53
2022-11-02T01:17:25.465Z,71.95
2022-11-02T01:19:28.574Z,72.14
2022-11-02T01:21:32.518Z,72.29
2022-11-02T01:23:36.060Z,71.99
2022-11-02T01:25:38.614Z,72.07
2022-11-02T01:27:41.164Z,72.50
2022-11-02T01:29:43.756Z,72.42
2022-11-02T01:31:46.388Z,72.04
2022-11-02T01:33:48.962Z,72.33
2022-11-02T01:35:51.542Z,72.09
2022-11-02T01:37:55.451Z,72.13
2022-11-02T01:39:57.977Z,72.19
2022-11-02T01:42:02.550Z,72.56
2022-11-02T01:44:06.567Z,72.51
2022-11-02T01:46:17.750Z,72.62
2022-11-02T01:48:24.738Z,72.35
2022-11-02T01:50:28.455Z,72.54
2022-11-02T01:52:35.682Z,72.25
2022-11-02T01:54:43.391Z,72.04
2022-11-02T01:56:50.397Z,71.68
2022-11-02T01:58:57.790Z,71.87
2022-11-02T02:01:00.326Z,71.56
2022-11-02T02:03:08.712Z,71.65
2022-11-02T02:05:13.822Z,71.81
2022-11-02T02:07:17.058Z,71.71
2022-11-02T02:09:21.748Z,71.40
2022-11-02T02:11:31.124Z,71.29
2022-11-02T02:13:34.336Z,71.46
2022-11-02T02:15:45.052Z,71.64
2022-11-02T02:17:51.590Z,71.46
2022-11-02T02:19:59.364Z,71.17
2022-11-02T02:22:23.992Z,71.29
2022-11-02T02:24:45.318Z,70.88
2022-11-02T02:27:03.171Z,70.33
2022-11-02T02:29:13.871Z,70.51
2022-11-02T02:31:23.351Z,70.75
2022-11-02T02:33:31.655Z,71.18
2022-11-02T02:35:41.114Z,71.02
2022-11-02T02:37:51.364Z,71.11
2022-11-02T02:40:00.113Z,71.59
2022-11-02T02:42:12.926Z,71.54
2022-11-02T02:44:21.955Z,71.63
2022-11-02T02:46:32.417Z,72.00
2022-11-02T02:48:39.788Z,72.35
2022-11-02T02:50:48.624Z,71.81
2022-11-02T02:52:52.516Z,71.95
2022-11-02T02:54:59.293Z,71.84
2022-11-02T02:57:07.134Z,72.13
2022-11-02T02:59:17.337Z,71.96
2022-11-02T03:01:21.294Z,72.31
2022-11-02T03:03:26.829Z,71.95
2022-11-02T03:05:32.479Z,71.87
2022-11-02T03:07:35.898Z,71.56
2022-11-02T03:09:42.378Z,71.84
2022-11-02T03:11:53.959Z,71.83
2022-11-02T03:14:12.754Z,71.69
2022-11-02T03:16:30.008Z,71.47
2022-11-02T03:18:45.416Z,71.11
2022-11-02T03:20:58.874Z,71.03
2022-11-02T03:23:12.966Z,71.04
2022-11-02T03:25:19.485Z,71.09
2022-11-02T03:27:28.035Z,71.12
2022-11-02T03:29:42.185Z,70.91
2022-11-02T03:31:54.346Z,71.06
2022-11-02T03:34:01.464Z,71.08
2022-11-02T03:36:09.698Z,71.31
2022-11-02T03:38:14.896Z,70.79
2022-11-02T03:40:22.379Z,70.98
2022-11-02T03:42:28.633Z,70.85
2022-11-02T03:44:36.543Z,70.64
2022-11-02T03:46:43.708Z,71.02
2022-11-02T03:48:50.085Z,70.82
2022-11-02T03:50:54.724Z,70.91
2022-11-02T03:53:02.510Z,70.91
2022-11-02T03:55:09.215Z,70.89
2022-11-02T03:57:23.352Z,70.69
2022-11-02T03:59:25.971Z,71.07
2022-11-02T04:01:30.508Z,71.21
2022-11-02T04:03:34.909Z,71.75
2022-11-02T04:05:39.173Z,71.34
2022-11-02T04:08:04.039Z,71.87
2022-11-02T04:10:07.410Z,71.85
2022-11-02T04:12:27.502Z,71.36
2022-11-02T04:14:38.000Z,71.36
2022-11-02T04:16:41.156Z,71.20
2022-11-02T04:19:01.693Z,71.80
2022-11-02T04:21:05.919Z,71.72
2022-11-02T04:23:26.312Z,72.13
2022-11-02T04:25:28.879Z,71.80
2022-11-02T04:27:33.452Z,71.71
2022-11-02T04:29:36.030Z,71.74
2022-11-02T04:31:38.609Z,71.82
2022-11-02T04:33:41.338Z,71.93
2022-11-02T04:35:43.907Z,71.75
2022-11-02T04:38:05.556Z,72.09
2022-11-02T04:40:08.903Z,72.37
2022-11-02T04:42:11.459Z,72.07
2022-11-02T04:44:15.798Z,72.03
2022-11-02T04:46:18.620Z,71.75
2022-11-02T04:48:21.303Z,71.35
2022-11-02T04:50:23.858Z,71.24
2022-11-02T04:52:26.511Z,71.50
2022-11-02T04:54:30.599Z,71.47
2022-11-02T04:56:33.293Z,71.31
2022-11-02T04:58:36.260Z,71.43
2022-11-02T05:00:38.840Z,71.58
2022-11-02T05:02:41.489Z,71.71
2022-11-02T05:04:44.130Z,71.59
2022-11-02T05:06:46.663Z,71.51
2022-11-02T05:08:49.373Z,71.52
2022-11-02T05:10:56.930Z,71.73
2022-11-02T05:13:01.004Z,71.96
2022-11-02T05:15:04.795Z,72.03
2022-11-02T05:17:07.355Z,71.84
2022-11-02T05:19:11.055Z,71.71
2022-11-02T05:21:14.333Z,71.71
2022-11-02T05:23:16.901Z,71.67
2022-11-02T05:25:19.502Z,71.71
2022-11-02T05:27:23.510Z,71.61
2022-11-02T05:29:26.066Z,71.65
2022-11-02T05:31:28.619Z,71.66
2022-11-02T05:33:32.333Z,71.30
2022-11-02T05:35:34.852Z,71.71
2022-11-02T05:37:37.386Z,71.89
2022-11-02T05:39:39.930Z,71.89
2022-11-02T05:41:42.488Z,72.26
2022-11-02T05:43:46.498Z,71.73
2022-11-02T05:45:54.118Z,71.72
2022-11-02T05:47:56.699Z,71.89
2022-11-02T05:49:59.289Z,71.43
2022-11-02T05:52:01.841Z,71.29
2022-11-02T05:54:04.455Z,71.43
2022-11-02T05:56:09.269Z,71.18
2022-11-02T05:58:11.812Z,71.36
2022-11-02T06:00:16.083Z,71.31
2022-11-02T06:02:21.940Z,71.73
2022-11-02T06:04:26.024Z,71.48
2022-11-02T06:06:28.630Z,71.30
2022-11-02T06:08:33.207Z,71.60
2022-11-02T06:10:35.891Z,71.52
2022-11-02T06:12:38.471Z,71.74
2022-11-02T06:14:41.015Z,71.87
2022-11-02T06:16:44.943Z,72.15
2022-11-02T06:18:47.565Z,71.97
2022-11-02T06:20:50.166Z,72.02
2022-11-02T06:22:52.715Z,72.37
2022-11-02T06:24:55.261Z,72.51
2022-11-02T06:26:57.832Z,72.70
2022-11-02T06:29:00.655Z,72.34
2022-11-02T06:31:03.238Z,72.67
2022-11-02T06:33:07.495Z,72.66
2022-11-02T06:35:12.187Z,73.06
2022-11-02T06:37:14.759Z,73.17
2022-11-02T06:39:17.347Z,73.51
2022-11-02T06:41:19.914Z,73.71
2022-11-02T06:43:22.895Z,74.06
2022-11-02T06:45:26.332Z,74.39
2022-11-02T06:47:31.448Z,74.30
2022-11-02T06:49:35.411Z,74.21
2022-11-02T06:51:37.970Z,74.58
2022-11-02T06:53:40.573Z,74.55
2022-11-02T06:55:43.158Z,74.50
2022-11-02T06:57:46.375Z,74.50
2022-11-02T06:59:53.770Z,74.56
2022-11-02T07:01:58.680Z,74.46
2022-11-02T07:04:01.391Z,74.88
2022-11-02T07:06:11.065Z,74.86
2022-11-02T07:08:16.416Z,74.49
2022-11-02T07:10:18.982Z,74.38
2022-11-02T07:12:23.160Z,74.52
2022-11-02T07:14:25.958Z,74.22
2022-11-02T07:16:28.502Z,74.57
2022-11-02T07:18:31.050Z,74.37
2022-11-02T07:20:33.890Z,74.49
2022-11-02T07:22:37.998Z,74.37
2022-11-02T07:24:42.892Z,74.34
2022-11-02T07:26:45.520Z,74.27
2022-11-02T07:28:48.084Z,74.00
2022-11-02T07:30:50.699Z,73.61
2022-11-02T07:32:53.558Z,73.05
2022-11-02T07:34:56.112Z,72.65
2022-11-02T07:36:58.678Z,72.33
2022-11-02T07:39:02.596Z,72.15
2022-11-02T07:41:05.304Z,71.62
2022-11-02T07:43:08.608Z,71.82
2022-11-02T07:45:12.176Z,71.87
2022-11-02T07:47:17.051Z,72.12
2022-11-02T07:49:21.689Z,71.27
2022-11-02T07:51:24.608Z,71.39
2022-11-02T07:53:29.998Z,71.47
2022-11-02T07:55:34.094Z,71.86
2022-11-02T07:57:36.701Z,71.76
2022-11-02T07:59:39.290Z,71.95
2022-11-02T08:01:44.230Z,71.88
2022-11-02T08:03:47.812Z,72.08
2022-11-02T08:05:50.421Z,72.37
2022-11-02T08:08:03.696Z,72.82
2022-11-02T08:10:07.555Z,73.17
2022-11-02T08:12:11.475Z,72.70
2022-11-02T08:14:14.073Z,72.77
2022-11-02T08:16:16.861Z,72.94
2022-11-02T08:18:21.186Z,72.25
2022-11-02T08:20:23.742Z,72.55
2022-11-02T08:22:26.330Z,72.93
2022-11-02T08:24:28.897Z,72.93
2022-11-02T08:26:31.487Z,73.16
2022-11-02T08:28:39.898Z,73.34
2022-11-02T08:30:44.789Z,72.98
2022-11-02T08:32:47.408Z,73.29
2022-11-02T08:34:50.158Z,73.15
2022-11-02T08:36:52.781Z,73.51
2022-11-02T08:38:55.430Z,73.16
2022-11-02T08:40:58.106Z,71.81
2022-11-02T08:43:01.973Z,71.82
2022-11-02T08:45:07.107Z,72.30
2022-11-02T08:47:09.889Z,72.30
2022-11-02T08:49:12.552Z,72.35
2022-11-02T08:51:15.459Z,72.05
2022-11-02T08:53:18.639Z,72.02
2022-11-02T08:55:21.728Z,72.14
2022-11-02T08:57:24.280Z,71.60
2022-11-02T08:59:26.884Z,71.79
2022-11-02T09:01:30.919Z,71.93
2022-11-02T09:03:33.483Z,72.04
2022-11-02T09:05:38.512Z,72.18
2022-11-02T09:07:41.293Z,72.11
2022-11-02T09:09:43.834Z,71.92
2022-11-02T09:11:46.374Z,71.84
2022-11-02T09:13:52.811Z,71.85
2022-11-02T09:15:59.803Z,71.47
2022-11-02T09:18:04.149Z,71.74
2022-11-02T09:20:08.113Z,71.68
2022-11-02T09:22:10.701Z,71.55
2022-11-02T09:24:13.260Z,71.47
2022-11-02T09:26:15.912Z,70.54
2022-11-02T09:28:18.586Z,70.32
2022-11-02T09:30:21.763Z,70.15
2022-11-02T09:32:24.341Z,70.42
2022-11-02T09:34:28.251Z,69.94
2022-11-02T09:36:30.802Z,69.80
2022-11-02T09:38:33.903Z,70.09
2022-11-02T09:40:39.125Z,69.76
2022-11-02T09:42:51.055Z,69.47
2022-11-02T09:44:59.132Z,68.87
2022-11-02T09:49:30.232Z,69.52
2022-11-02T09:51:36.582Z,69.49
2022-11-02T09:53:47.812Z,68.23
2022-11-02T09:55:54.694Z,67.81
2022-11-02T09:58:02.584Z,67.26
2022-11-02T10:00:06.270Z,66.46
2022-11-02T10:02:21.537Z,66.96
2022-11-02T10:05:07.440Z,66.30
2022-11-02T10:07:20.166Z,66.77
2022-11-02T10:09:29.098Z,66.72
2022-11-02T10:11:42.558Z,66.78
2022-11-02T10:13:54.160Z,67.01
2022-11-02T10:16:04.366Z,66.30
2022-11-02T10:18:10.439Z,65.96
2022-11-02T10:20:25.764Z,66.44
2022-11-02T10:22:33.601Z,65.73
2022-11-02T10:24:42.622Z,66.26
2022-11-02T10:26:45.319Z,66.20
2022-11-02T10:28:50.163Z,66.39
2022-11-02T10:30:53.643Z,66.39
2022-11-02T10:32:57.294Z,65.99
2022-11-02T10:35:25.347Z,65.84
2022-11-02T10:37:49.222Z,66.38
2022-11-02T10:40:03.678Z,66.32
2022-11-02T10:42:35.147Z,65.29
2022-11-02T10:45:02.847Z,65.66
2022-11-02T10:47:15.763Z,65.13
2022-11-02T10:49:38.713Z,64.69
2022-11-02T10:51:42.042Z,64.69
2022-11-02T10:53:48.293Z,64.64
2022-11-02T10:56:00.353Z,64.97
2022-11-02T10:58:06.020Z,65.02
2022-11-02T11:00:27.198Z,64.53
2022-11-02T11:02:29.836Z,64.83
2022-11-02T11:04:34.399Z,65.38
2022-11-02T11:06:38.721Z,64.91
2022-11-02T11:08:44.292Z,65.41
2022-11-02T11:10:48.237Z,64.69
2022-11-02T11:12:51.064Z,64.31
2022-11-02T11:19:51.316Z,62.49
2022-11-02T11:21:54.481Z,62.51
2022-11-02T11:24:20.135Z,63.08
2022-11-02T11:26:31.584Z,63.87
2022-11-02T11:28:40.664Z,63.92
2022-11-02T11:31:00.256Z,63.54
2022-11-02T11:33:05.961Z,62.72
2022-11-02T11:35:18.238Z,62.56
2022-11-02T11:37:21.264Z,62.11
2022-11-02T11:39:28.069Z,60.86
2022-11-02T11:41:36.601Z,61.09
2022-11-02T11:43:41.186Z,59.89
2022-11-02T11:45:57.310Z,60.02
2022-11-02T11:48:08.435Z,59.78
2022-11-02T11:50:22.994Z,59.15
2022-11-02T11:52:33.572Z,59.88
2022-11-02T11:54:36.770Z,60.81
2022-11-02T11:56:40.911Z,60.98
2022-11-02T11:58:52.146Z,61.09
2022-11-02T12:01:10.807Z,61.10
2022-11-02T12:03:16.349Z,61.71
2022-11-02T12:05:20.867Z,61.73
2022-11-02T12:07:50.771Z,61.67
2022-11-02T12:10:06.001Z,61.18
2022-11-02T12:12:20.870Z,60.54
2022-11-02T12:14:38.621Z,60.56
2022-11-02T12:17:05.534Z,60.48
2022-11-02T12:19:20.186Z,60.84
2022-11-02T12:21:39.841Z,60.84
2022-11-02T12:24:00.514Z,61.19
2022-11-02T12:26:16.853Z,61.54
2022-11-02T12:28:32.779Z,61.81
2022-11-02T12:30:48.703Z,61.45
2022-11-02T12:33:09.878Z,60.91
2022-11-02T12:35:43.706Z,60.53
2022-11-02T12:38:02.833Z,60.37
2022-11-02T12:40:20.498Z,60.30
2022-11-02T12:42:29.009Z,60.17
2022-11-02T12:44:53.126Z,60.39
2022-11-02T12:47:00.885Z,60.31
2022-11-02T12:49:21.673Z,60.06
2022-11-02T12:51:29.046Z,60.28
2022-11-02T12:53:49.851Z,60.60
2022-11-02T12:55:55.179Z,61.17
2022-11-02T12:58:03.539Z,60.51
2022-11-02T13:00:16.992Z,60.13
2022-11-02T13:02:25.280Z,60.47
2022-11-02T13:04:36.861Z,60.49
2022-11-02T13:06:45.019Z,60.71
2022-11-02T13:08:53.320Z,60.98
2022-11-02T13:11:00.914Z,61.13
2022-11-02T13:13:05.545Z,61.27
2022-11-02T13:15:15.999Z,61.00
2022-11-02T13:17:22.763Z,61.05
2022-11-02T13:19:32.825Z,60.82
2022-11-02T13:21:43.869Z,61.02
2022-11-02T13:23:50.838Z,61.20
2022-11-02T13:25:59.392Z,60.67
2022-11-02T13:28:06.358Z,60.62
2022-11-02T13:30:16.552Z,60.53
2022-11-02T13:32:32.469Z,59.91
2022-11-02T13:34:40.258Z,60.23
2022-11-02T13:36:43.464Z,60.10
2022-11-02T13:38:49.834Z,60.15
2022-11-02T13:41:05.963Z,59.84
2022-11-02T13:43:45.720Z,59.83
2022-11-02T13:46:18.402Z,59.33
2022-11-02T13:48:40.710Z,58.58
2022-11-02T13:50:47.923Z,58.36
2022-11-02T13:52:56.484Z,58.38
2022-11-02T13:55:04.738Z,58.23
2022-11-02T13:57:20.638Z,58.36
2022-11-02T13:59:27.263Z,58.41
2022-11-02T14:01:33.854Z,58.07
2022-11-02T14:03:49.613Z,57.56
2022-11-02T14:05:56.614Z,56.95
2022-11-02T14:08:02.988Z,56.05
2022-11-02T14:10:11.128Z,55.06
2022-11-02T14:12:41.408Z,54.65
2022-11-02T14:14:44.587Z,54.89
2022-11-02T14:16:58.887Z,54.68
2022-11-02T14:19:19.304Z,54.25
2022-11-02T14:21:42.742Z,53.79
2022-11-02T14:23:45.456Z,53.73
2022-11-02T14:25:49.282Z,53.81
2022-11-02T14:27:55.559Z,53.76
2022-11-02T14:29:59.032Z,53.21
2022-11-02T14:32:11.763Z,53.30
2022-11-02T14:34:41.177Z,53.49
2022-11-02T14:36:58.647Z,53.29
2022-11-02T14:39:10.741Z,53.43
2022-11-02T14:41:34.134Z,53.26
2022-11-02T14:43:54.058Z,53.28
2022-11-02T14:46:09.597Z,53.21
2022-11-02T14:48:16.759Z,52.74
2022-11-02T14:50:22.042Z,52.96
2022-11-02T14:52:28.330Z,53.44
2022-11-02T14:54:33.263Z,53.62
2022-11-02T14:56:52.786Z,54.09
2022-11-02T14:58:58.026Z,54.39
2022-11-02T15:01:04.001Z,54.47
2022-11-02T15:03:14.981Z,55.05
2022-11-02T15:05:27.133Z,55.81
2022-11-02T15:07:36.031Z,56.50
2022-11-02T15:09:59.570Z,57.27
2022-11-02T15:12:21.324Z,57.05
2022-11-02T15:14:52.475Z,56.67
2022-11-02T15:16:55.124Z,56.78
2022-11-02T15:19:38.984Z,56.60
2022-11-02T15:21:41.570Z,56.96
2022-11-02T15:23:47.406Z,57.69
2022-11-02T15:25:52.414Z,58.28
2022-11-02T15:27:58.504Z,59.42
2022-11-02T15:30:02.638Z,60.34
2022-11-02T15:32:09.856Z,60.67
2022-11-02T15:34:18.602Z,60.54
2022-11-02T15:36:29.973Z,60.27
2022-11-02T15:38:38.427Z,59.94
2022-11-02T15:40:49.709Z,60.19
2022-11-02T15:43:03.573Z,61.16
2022-11-02T15:45:48.914Z,62.06
2022-11-02T15:47:59.549Z,62.49
2022-11-02T15:50:16.210Z,62.44
2022-11-02T15:52:31.373Z,62.62
2022-11-02T15:54:54.065Z,62.65
2022-11-02T15:57:10.768Z,62.73
2022-11-02T15:59:50.843Z,62.92
2022-11-02T16:02:11.650Z,63.13
2022-11-02T16:04:23.087Z,63.38
2022-11-02T16:06:27.050Z,63.58
2022-11-02T16:08:34.871Z,63.98
2022-11-02T16:10:37.462Z,63.90
2022-11-02T16:12:40.143Z,64.01
2022-11-02T16:14:42.983Z,63.93
2022-11-02T16:16:49.546Z,64.44
2022-11-02T16:18:53.965Z,63.98
2022-11-02T16:21:01.881Z,64.01
2022-11-02T16:23:06.066Z,64.07
2022-11-02T16:25:15.110Z,64.46
2022-11-02T16:27:17.770Z,64.55
2022-11-02T16:29:30.196Z,64.83
2022-11-02T16:31:32.735Z,64.77
2022-11-02T16:33:40.251Z,64.95
2022-11-02T16:35:43.356Z,65.19
2022-11-02T16:37:46.466Z,65.26
2022-11-02T16:39:49.161Z,65.27
2022-11-02T16:41:55.726Z,65.22
2022-11-02T16:44:01.627Z,65.49
2022-11-02T16:46:06.943Z,65.31
2022-11-02T16:48:21.152Z,64.97
2022-11-02T16:50:26.213Z,64.88
2022-11-02T16:52:33.293Z,65.11
2022-11-02T16:54:41.110Z,65.30
2022-11-02T16:56:49.714Z,65.37
2022-11-02T16:58:59.847Z,65.59
2022-11-02T17:01:07.551Z,65.48
2022-11-02T17:03:15.675Z,65.58
2022-11-02T17:05:21.827Z,65.33
2022-11-02T17:07:32.778Z,65.45
2022-11-02T17:09:35.507Z,65.18
2022-11-02T17:11:42.243Z,65.33
2022-11-02T17:13:49.733Z,65.39
2022-11-02T17:15:56.737Z,64.89
2022-11-02T17:18:24.751Z,65.30
2022-11-02T17:20:27.378Z,65.28
2022-11-02T17:22:30.273Z,65.29
2022-11-02T17:24:36.059Z,65.22
2022-11-02T17:26:38.777Z,65.54
2022-11-02T17:28:46.271Z,65.14
2022-11-02T17:30:49.366Z,65.32
2022-11-02T17:32:53.329Z,65.17
2022-11-02T17:34:58.243Z,65.14
2022-11-02T17:37:00.868Z,65.50
2022-11-02T17:39:05.473Z,65.52
2022-11-02T17:41:25.260Z,65.66
2022-11-02T17:43:28.638Z,65.37
2022-11-02T17:45:33.195Z,65.30
2022-11-02T17:47:35.765Z,65.53
2022-11-02T17:49:39.831Z,65.66
2022-11-02T17:51:43.293Z,65.95
2022-11-02T17:53:45.891Z,65.73
2022-11-02T17:55:48.610Z,65.72
2022-11-02T17:57:51.444Z,65.93
2022-11-02T17:59:54.559Z,65.97
2022-11-02T18:01:57.958Z,65.05
2022-11-02T18:04:00.623Z,65.51
2022-11-02T18:06:04.753Z,65.73
2022-11-02T18:08:08.926Z,65.75
2022-11-02T18:10:11.780Z,66.52
2022-11-02T18:12:15.354Z,66.76
2022-11-02T18:14:18.139Z,66.71
2022-11-02T18:16:20.690Z,66.82
2022-11-02T18:18:23.255Z,66.79
2022-11-02T18:20:27.712Z,66.07
2022-11-02T18:22:31.619Z,66.71
2022-11-02T18:24:34.203Z,66.69
2022-11-02T18:26:36.870Z,66.97
2022-11-02T18:28:39.762Z,66.67
2022-11-02T18:30:44.153Z,66.71
2022-11-02T18:32:47.880Z,67.22
2022-11-02T18:34:50.867Z,66.49
2022-11-02T18:36:53.442Z,66.74
2022-11-02T18:38:57.333Z,66.92
2022-11-02T18:41:04.538Z,67.13
2022-11-02T18:43:07.582Z,67.16
2022-11-02T18:45:12.070Z,66.64
2022-11-02T18:47:14.653Z,66.33
2022-11-02T18:49:17.293Z,66.28
2022-11-02T18:51:19.923Z,66.40
2022-11-02T18:53:22.487Z,66.33
2022-11-02T18:55:26.620Z,66.32
2022-11-02T18:57:29.282Z,66.09
2022-11-02T18:59:31.887Z,66.68
2022-11-02T19:01:34.665Z,66.52
2022-11-02T19:03:37.875Z,66.77
2022-11-02T19:08:24.075Z,67.28
2022-11-02T19:10:28.008Z,66.97
2022-11-02T19:12:31.398Z,66.80
2022-11-02T19:14:36.159Z,67.11
2022-11-02T19:16:38.743Z,66.61
2022-11-02T19:18:41.285Z,66.65
2022-11-02T19:20:43.855Z,66.67
2022-11-02T19:22:50.759Z,66.97
2022-11-02T19:24:56.137Z,66.71
2022-11-02T19:27:00.258Z,67.24
2022-11-02T19:29:06.141Z,67.17
2022-11-02T19:31:09.389Z,67.04
2022-11-02T19:33:11.964Z,66.98
2022-11-02T19:35:14.641Z,67.29
2022-11-02T19:37:17.168Z,66.77
2022-11-02T19:39:19.744Z,66.80
2022-11-02T19:41:23.782Z,66.45
2022-11-02T19:43:27.657Z,66.77
2022-11-02T19:45:30.231Z,66.53
2022-11-02T19:47:32.868Z,67.12
2022-11-02T19:49:35.407Z,67.87
2022-11-02T19:51:38.005Z,67.97
2022-11-02T19:53:42.404Z,68.42
2022-11-02T19:55:52.947Z,68.51
2022-11-02T19:57:55.497Z,68.54
2022-11-02T19:59:59.448Z,68.69
2022-11-02T20:02:04.292Z,68.63
2022-11-02T20:04:07.965Z,68.68
2022-11-02T20:06:12.759Z,68.31
2022-11-02T20:08:15.581Z,68.24
2022-11-02T20:10:18.318Z,67.81
2022-11-02T20:12:20.880Z,67.90
2022-11-02T20:14:23.510Z,67.27
2022-11-02T20:16:28.376Z,67.54
2022-11-02T20:18:31.777Z,67.08
2022-11-02T20:20:34.417Z,67.41
2022-11-02T20:22:38.490Z,67.43
2022-11-02T20:24:41.038Z,67.51
2022-11-02T20:26:43.630Z,67.57
2022-11-02T20:28:47.643Z,67.44
2022-11-02T20:30:50.196Z,67.49
2022-11-02T20:32:54.091Z,67.57
2022-11-02T20:34:56.671Z,67.91
2022-11-02T20:36:59.278Z,68.13
2022-11-02T20:39:03.248Z,68.48
2022-11-02T20:41:07.869Z,68.95
2022-11-02T20:43:10.427Z,69.08
2022-11-02T20:45:12.991Z,69.08
2022-11-02T20:47:16.100Z,68.26
2022-11-02T20:49:22.773Z,68.34
2022-11-02T20:51:38.860Z,68.63
2022-11-02T20:53:41.442Z,68.91
2022-11-02T20:55:44.015Z,68.91
2022-11-02T20:57:48.850Z,68.37
2022-11-02T20:59:51.448Z,68.49
2022-11-02T21:01:54.283Z,68.03
2022-11-02T21:03:56.885Z,68.06
2022-11-02T21:06:03.544Z,67.75
2022-11-02T21:08:07.411Z,67.77
2022-11-02T21:10:11.470Z,67.83
2022-11-02T21:12:32.824Z,67.85
2022-11-02T21:14:35.369Z,67.98
2022-11-02T21:16:37.932Z,67.69
2022-11-02T21:18:40.747Z,68.63
2022-11-02T21:20:43.464Z,69.04
2022-11-02T21:22:50.559Z,69.07
2022-11-02T21:24:53.134Z,69.20
2022-11-02T21:26:57.064Z,69.42
2022-11-02T21:29:01.637Z,69.43
2022-11-02T21:31:06.230Z,69.92
2022-11-02T21:33:09.202Z,69.72
2022-11-02T21:35:12.025Z,69.57
2022-11-02T21:37:14.631Z,69.46
2022-11-02T21:39:18.539Z,68.50
2022-11-02T21:41:25.726Z,68.59
2022-11-02T21:43:28.879Z,68.50
2022-11-02T21:45:37.486Z,68.26
2022-11-02T21:47:40.565Z,68.46
2022-11-02T21:49:43.191Z,68.50
2022-11-02T21:51:45.848Z,68.27
2022-11-02T21:53:50.024Z,68.45
2022-11-02T21:55:59.116Z,67.87
2022-11-02T21:58:01.683Z,68.78
2022-11-02T22:00:04.735Z,68.70
2022-11-02T22:02:06.633Z,68.74
2022-11-02T22:04:09.905Z,68.59
2022-11-02T22:06:12.631Z,68.36
2022-11-02T22:08:32.734Z,68.91
2022-11-02T22:10:35.421Z,69.16
2022-11-02T22:12:56.801Z,69.46
2022-11-02T22:14:59.386Z,69.96
2022-11-02T22:17:04.707Z,70.08
2022-11-02T22:19:11.966Z,70.41
2022-11-02T22:21:15.776Z,70.11
2022-11-02T22:23:18.939Z,69.11
2022-11-02T22:25:21.519Z,69.25
2022-11-02T22:27:24.084Z,69.20
2022-11-02T22:29:28.026Z,69.15
2022-11-02T22:31:32.518Z,69.45
2022-11-02T22:33:35.159Z,69.62
2022-11-02T22:35:37.740Z,70.24
2022-11-02T22:37:58.022Z,69.64
2022-11-02T22:40:00.616Z,69.50
2022-11-02T22:42:03.216Z,69.64
2022-11-02T22:44:07.719Z,68.27
2022-11-02T22:46:11.837Z,68.70
2022-11-02T22:48:14.410Z,68.40
2022-11-02T22:50:17.143Z,68.30
2022-11-02T22:52:19.706Z,68.62
2022-11-02T22:54:22.262Z,68.85
2022-11-02T22:56:25.000Z,68.35
2022-11-02T22:58:29.173Z,69.22
2022-11-02T23:00:31.830Z,68.85
2022-11-02T23:02:35.740Z,68.84
2022-11-02T23:04:38.599Z,68.75
2022-11-02T23:06:44.309Z,68.48
2022-11-02T23:08:50.221Z,68.35
2022-11-02T23:11:13.409Z,69.19
2022-11-02T23:13:15.991Z,69.18
2022-11-02T23:15:18.546Z,69.05
2022-11-02T23:17:21.102Z,68.71
2022-11-02T23:19:28.746Z,68.61
2022-11-02T23:21:31.714Z,67.99
2022-11-02T23:23:51.667Z,68.75
2022-11-02T23:25:57.251Z,69.14
2022-11-02T23:28:17.886Z,69.15
2022-11-02T23:30:38.235Z,69.33
2022-11-02T23:32:40.821Z,69.68
2022-11-02T23:35:03.914Z,69.77
2022-11-02T23:37:06.939Z,69.56
2022-11-02T23:39:26.928Z,69.74
2022-11-02T23:41:30.365Z,70.16
2022-11-02T23:43:32.921Z,69.89
2022-11-02T23:45:35.825Z,69.31
2022-11-02T23:47:56.137Z,69.51
2022-11-02T23:50:00.079Z,69.98
2022-11-02T23:52:20.524Z,69.72
2022-11-02T23:54:40.903Z,70.36
2022-11-02T23:56:44.315Z,70.39
2022-11-02T23:58:47.273Z,70.66
